Time;durP1;ratioP1;P1;durP2;ratioP2;P2;SDS_P1;SDS_P2;PMS_P1;PMS_P2;Temp;Humidity;BMP_temperature;BMP_pressure;BME280_temperature;BME280_humidity;BME280_pressure;Samples;Min_cycle;Max_cycle;Signal;HPM_P1;HPM_P2
2021/12/08 00:02:00;;;;;;;19.17;13.43;;;8.30;99.90;;;;;;5208969;28;20032;-76
2021/12/08 00:04:31;;;;;;;31.88;19.48;;;8.00;99.90;;;;;;5208435;28;20058;-76
2021/12/08 00:07:03;;;;;;;27.50;14.70;;;8.20;99.90;;;;;;5208783;28;20075;-77
2021/12/08 00:09:45;;;;;;;28.08;17.80;;;8.10;99.90;;;;;;5208684;28;20033;-76
2021/12/08 00:15:06;;;;;;;28.63;18.80;;;8.00;99.90;;;;;;5252274;28;20035;-76
2021/12/08 00:17:37;;;;;;;31.88;15.60;;;7.80;99.90;;;;;;5252451;28;20068;-77
2021/12/08 00:20:08;;;;;;;29.30;15.25;;;7.80;99.90;;;;;;5251888;28;20440;-77
2021/12/08 00:22:39;;;;;;;28.63;16.20;;;8.00;99.90;;;;;;5251896;28;20383;-76
2021/12/08 00:25:10;;;;;;;23.67;10.98;;;7.80;99.90;;;;;;5251844;28;20028;-75
2021/12/08 00:27:41;;;;;;;19.10;8.55;;;7.90;99.90;;;;;;5251765;28;20082;-75
2021/12/08 00:30:12;;;;;;;26.60;18.23;;;8.30;99.90;;;;;;5251630;28;20096;-75
2021/12/08 00:32:45;;;;;;;26.73;12.82;;;8.20;99.90;;;;;;5233621;28;20021;-75
2021/12/08 00:35:16;;;;;;;26.48;17.08;;;8.10;99.90;;;;;;5251547;28;20029;-75
2021/12/08 00:37:47;;;;;;;22.23;13.27;;;8.10;99.90;;;;;;5233508;28;20031;-76
2021/12/08 00:40:19;;;;;;;24.75;15.10;;;8.00;99.90;;;;;;5233693;28;20024;-76
2021/12/08 00:42:50;;;;;;;22.67;12.25;;;8.10;99.90;;;;;;5233264;28;20086;-76
2021/12/08 00:45:23;;;;;;;23.55;12.80;;;7.90;99.90;;;;;;5251411;28;20036;-76
2021/12/08 00:47:55;;;;;;;41.97;26.85;;;8.10;99.90;;;;;;5251613;28;20017;-76
2021/12/08 00:50:32;;;;;;;47.65;25.30;;;8.10;99.90;;;;;;5251250;28;20036;-76
2021/12/08 00:53:03;;;;;;;33.42;18.13;;;7.80;99.90;;;;;;5251322;28;20012;-76
2021/12/08 00:55:35;;;;;;;27.55;15.38;;;7.90;99.90;;;;;;5251089;28;20051;-76
2021/12/08 00:58:06;;;;;;;17.38;11.70;;;8.00;99.90;;;;;;5251397;28;20028;-76
2021/12/08 01:00:47;;;;;;;21.83;11.45;;;7.80;99.90;;;;;;5251451;28;20028;-75
2021/12/08 01:03:19;;;;;;;22.98;9.60;;;7.90;99.90;;;;;;5232964;28;20060;-76
2021/12/08 01:05:53;;;;;;;18.08;10.15;;;7.80;99.90;;;;;;5250909;28;20032;-76
2021/12/08 01:08:26;;;;;;;20.05;10.35;;;8.00;99.90;;;;;;5249893;28;20096;-75
2021/12/08 01:11:04;;;;;;;18.17;9.75;;;7.90;99.90;;;;;;5233097;28;20032;-75
2021/12/08 01:13:35;;;;;;;33.83;18.35;;;8.00;99.90;;;;;;5250665;28;20016;-76
2021/12/08 01:16:07;;;;;;;23.42;11.80;;;7.90;99.90;;;;;;5250758;28;20032;-78
2021/12/08 01:18:38;;;;;;;20.20;8.52;;;7.80;99.90;;;;;;5250679;28;20028;-77
2021/12/08 01:21:11;;;;;;;15.00;7.85;;;7.80;99.90;;;;;;5250877;28;20476;-76
2021/12/08 01:23:42;;;;;;;13.65;6.43;;;7.90;99.90;;;;;;5250557;28;20031;-77
2021/12/08 01:26:13;;;;;;;14.05;6.10;;;7.70;99.90;;;;;;5250939;28;20380;-77
2021/12/08 01:28:44;;;;;;;16.55;6.63;;;7.90;99.90;;;;;;5250653;28;20017;-77
2021/12/08 01:31:15;;;;;;;12.45;6.53;;;7.80;99.90;;;;;;5250745;28;20054;-77
2021/12/08 01:33:46;;;;;;;9.60;5.68;;;7.60;99.90;;;;;;5232855;28;20111;-76
2021/12/08 01:36:17;;;;;;;9.50;5.07;;;7.80;99.90;;;;;;5250395;28;20047;-77
2021/12/08 01:38:48;;;;;;;12.48;5.53;;;7.80;99.90;;;;;;5250279;28;20415;-77
2021/12/08 01:41:21;;;;;;;18.30;5.47;;;7.80;99.90;;;;;;5250446;28;20039;-78
2021/12/08 01:46:41;;;;;;;11.30;5.85;;;7.80;99.90;;;;;;5250800;28;20047;-76
2021/12/08 01:49:13;;;;;;;15.40;4.97;;;7.90;99.90;;;;;;5232597;28;20016;-75
2021/12/08 01:51:44;;;;;;;13.65;6.07;;;7.90;99.90;;;;;;5250010;28;20096;-76
2021/12/08 01:54:15;;;;;;;13.15;5.53;;;7.90;99.90;;;;;;5249981;28;20036;-75
2021/12/08 01:56:46;;;;;;;17.92;5.32;;;7.90;99.90;;;;;;5249981;28;20032;-76
2021/12/08 01:59:17;;;;;;;16.70;4.70;;;7.60;99.90;;;;;;5249884;28;20031;-76
2021/12/08 02:01:52;;;;;;;8.90;4.70;;;7.50;99.90;;;;;;5249931;28;20028;-76
2021/12/08 02:04:28;;;;;;;7.40;4.18;;;7.70;99.90;;;;;;5248795;28;20624;-76
2021/12/08 02:07:03;;;;;;;11.55;4.07;;;7.70;99.90;;;;;;5249474;28;20490;-77
2021/12/08 02:09:40;;;;;;;12.45;4.30;;;7.60;99.90;;;;;;5249689;28;20035;-76
2021/12/08 02:12:18;;;;;;;42.78;28.77;;;7.70;99.90;;;;;;5249484;28;20092;-77
2021/12/08 02:15:05;;;;;;;20.27;11.82;;;7.70;99.90;;;;;;5249651;28;20078;-75
2021/12/08 02:17:40;;;;;;;40.67;25.10;;;7.50;99.90;;;;;;5262830;28;20180;-75
2021/12/08 02:20:11;;;;;;;14.55;9.77;;;7.50;99.90;;;;;;5269727;28;20028;-76
2021/12/08 02:22:43;;;;;;;26.92;11.98;;;7.50;99.90;;;;;;5270249;28;20068;-76
2021/12/08 02:25:17;;;;;;;27.65;15.40;;;7.40;99.90;;;;;;5270386;28;20027;-77
2021/12/08 02:27:49;;;;;;;29.25;11.60;;;7.30;99.90;;;;;;5270538;28;20073;-77
2021/12/08 02:30:35;;;;;;;8.15;5.90;;;7.30;99.90;;;;;;5270305;28;20500;-76
2021/12/08 02:49:59;;;;;;;18.98;10.32;;;7.80;99.90;;;;;;5269957;28;20018;-77
2021/12/08 02:52:30;;;;;;;16.45;9.02;;;7.90;99.90;;;;;;5269883;28;20415;-78
2021/12/08 02:55:07;;;;;;;20.77;11.85;;;7.90;99.90;;;;;;5270183;28;20094;-76
2021/12/08 02:57:37;;;;;;;19.50;7.90;;;7.90;99.90;;;;;;5269770;28;20036;-77
2021/12/08 03:00:11;;;;;;;18.13;7.43;;;7.80;99.90;;;;;;5269654;28;20021;-74
2021/12/08 03:02:42;;;;;;;22.05;9.50;;;7.90;99.90;;;;;;5269420;28;20028;-76
2021/12/08 03:05:13;;;;;;;13.20;9.35;;;7.60;99.90;;;;;;5269704;28;20094;-79
2021/12/08 03:07:44;;;;;;;21.10;9.93;;;7.70;99.90;;;;;;5269583;28;20024;-80
2021/12/08 03:10:20;;;;;;;21.52;10.10;;;7.60;99.90;;;;;;5269811;28;20048;-79
2021/12/08 03:12:52;;;;;;;19.35;9.07;;;7.70;99.90;;;;;;5269466;28;20458;-79
2021/12/08 03:15:23;;;;;;;20.27;9.82;;;7.80;99.90;;;;;;5269415;28;20438;-80
2021/12/08 03:17:54;;;;;;;16.17;8.18;;;7.70;99.90;;;;;;5269406;28;20081;-79
2021/12/08 03:20:42;;;;;;;18.38;8.55;;;7.80;99.90;;;;;;5269598;28;20053;-79
2021/12/08 03:23:20;;;;;;;12.40;6.57;;;7.60;99.90;;;;;;5269334;28;20107;-79
2021/12/08 03:25:55;;;;;;;17.48;6.65;;;7.80;99.90;;;;;;5269413;28;20024;-76
2021/12/08 03:28:31;;;;;;;11.93;5.25;;;7.90;99.90;;;;;;5269390;28;20077;-76
2021/12/08 03:31:10;;;;;;;11.93;4.07;;;8.10;99.90;;;;;;5269029;28;20024;-76
2021/12/08 03:33:42;;;;;;;8.43;4.50;;;8.30;99.90;;;;;;5269414;28;20052;-76
2021/12/08 03:36:13;;;;;;;9.93;4.50;;;8.30;99.90;;;;;;5269422;28;20050;-77
2021/12/08 03:38:45;;;;;;;8.07;5.40;;;8.40;99.90;;;;;;5269178;28;20410;-76
2021/12/08 03:41:16;;;;;;;15.52;5.05;;;8.30;99.90;;;;;;5269226;28;20020;-76
2021/12/08 03:43:47;;;;;;;11.80;4.15;;;8.20;99.90;;;;;;5268998;28;20387;-76
2021/12/08 03:46:18;;;;;;;21.92;14.70;;;8.40;99.90;;;;;;5269023;28;20034;-76
2021/12/08 03:48:50;;;;;;;25.92;15.88;;;8.50;99.90;;;;;;5269003;28;20109;-76
2021/12/08 03:51:21;;;;;;;31.63;17.55;;;8.30;99.90;;;;;;5269006;28;20027;-77
2021/12/08 03:53:52;;;;;;;21.08;11.90;;;8.30;99.90;;;;;;5269007;28;20020;-77
2021/12/08 03:56:23;;;;;;;17.15;8.77;;;8.30;99.90;;;;;;5269201;28;20086;-77
2021/12/08 03:58:53;;;;;;;18.75;8.45;;;8.30;99.90;;;;;;5269163;28;20020;-78
2021/12/08 04:01:24;;;;;;;17.73;8.55;;;8.40;99.90;;;;;;5269058;28;20034;-78
2021/12/08 04:04:01;;;;;;;18.02;6.57;;;8.30;99.90;;;;;;5268516;28;20042;-81
2021/12/08 04:06:40;;;;;;;14.30;5.57;;;8.30;99.90;;;;;;5268457;28;20364;-81
2021/12/08 04:09:53;;;;;;;9.80;4.93;;;8.30;99.90;;;;;;5269040;28;20559;-79
2021/12/08 04:12:08;;;;;;;13.63;5.03;;;8.30;99.90;;;;;;5260607;28;20119;-79
2021/12/08 04:14:43;;;;;;;10.02;5.13;;;8.40;99.90;;;;;;5268832;28;20536;-79
2021/12/08 04:17:25;;;;;;;13.65;5.03;;;8.50;99.90;;;;;;5269144;28;20047;-81
2021/12/08 04:20:09;;;;;;;12.90;5.00;;;8.60;99.90;;;;;;5268787;28;20025;-77
2021/12/08 04:22:42;;;;;;;8.38;5.10;;;8.60;99.90;;;;;;5269045;28;20028;-78
2021/12/08 04:25:18;;;;;;;16.23;5.40;;;9.20;99.90;;;;;;5268753;28;20024;-76
2021/12/08 04:27:51;;;;;;;14.48;4.20;;;8.70;99.90;;;;;;5268775;28;20075;-77
2021/12/08 04:30:30;;;;;;;14.65;4.03;;;8.80;99.90;;;;;;5268939;28;20398;-79
2021/12/08 04:33:00;;;;;;;12.13;4.43;;;8.90;99.90;;;;;;5268882;28;20032;-78
2021/12/08 04:35:32;;;;;;;11.98;4.53;;;8.90;99.90;;;;;;5268830;28;20387;-78
2021/12/08 04:38:09;;;;;;;13.65;4.63;;;8.80;99.90;;;;;;5268531;28;20077;-78
2021/12/08 04:51:54;;;;;;;38.67;18.83;;;9.40;99.90;;;;;;5272278;28;20024;-84
2021/12/08 05:00:56;;;;;;;44.00;21.80;;;9.50;99.90;;;;;;5272460;28;20035;-81
2021/12/08 05:03:50;;;;;;;15.88;8.95;;;9.10;99.90;;;;;;5271834;28;20173;-80
2021/12/08 05:06:38;;;;;;;6.47;2.92;;;9.30;99.90;;;;;;5271902;28;20028;-81
2021/12/08 05:09:23;;;;;;;16.42;8.95;;;9.40;99.90;;;;;;5272093;28;20024;-81
2021/12/08 05:12:01;;;;;;;4.53;2.90;;;9.30;99.90;;;;;;5271906;28;20024;-78
2021/12/08 05:14:37;;;;;;;6.88;2.97;;;9.10;99.90;;;;;;5271699;28;20119;-78
2021/12/08 05:17:15;;;;;;;7.65;2.80;;;9.10;99.90;;;;;;5271750;28;20040;-77
2021/12/08 05:19:50;;;;;;;1.40;0.57;;;9.00;99.90;;;;;;5271510;28;20027;-78
2021/12/08 05:22:35;;;;;;;21.90;10.57;;;9.00;99.90;;;;;;5264221;28;20461;-78
2021/12/08 05:25:14;;;;;;;12.57;3.72;;;8.90;99.90;;;;;;5263703;28;20032;-78
2021/12/08 05:27:49;;;;;;;16.02;8.90;;;8.90;99.90;;;;;;5258898;28;20024;-75
2021/12/08 05:30:24;;;;;;;4.78;1.98;;;8.80;99.90;;;;;;5253841;28;20524;-78
2021/12/08 05:32:56;;;;;;;5.63;2.35;;;8.90;99.90;;;;;;5255993;28;20077;-77
2021/12/08 05:35:28;;;;;;;2.90;1.35;;;8.80;99.90;;;;;;5258108;28;20121;-76
2021/12/08 05:37:59;;;;;;;2.42;0.80;;;8.90;99.90;;;;;;5243075;28;20396;-77
2021/12/08 05:40:40;;;;;;;7.78;3.72;;;8.80;99.90;;;;;;5243035;28;20485;-76
2021/12/08 05:43:12;;;;;;;4.38;2.05;;;8.70;99.90;;;;;;5259104;28;20304;-81
2021/12/08 05:45:45;;;;;;;8.25;2.95;;;8.60;99.90;;;;;;5266441;28;20028;-80
2021/12/08 05:48:16;;;;;;;1.88;0.90;;;8.60;99.90;;;;;;5252150;28;20060;-79
2021/12/08 05:51:18;;;;;;;8.90;0.98;;;8.60;99.90;;;;;;5260124;28;20032;-77
2021/12/08 05:53:53;;;;;;;6.03;2.40;;;8.50;99.90;;;;;;5257231;28;20032;-74
2021/12/08 05:56:24;;;;;;;6.80;2.92;;;8.50;99.90;;;;;;5249455;28;20036;-77
2021/12/08 05:58:58;;;;;;;14.60;5.32;;;8.50;99.90;;;;;;5231891;28;20538;-77
2021/12/08 06:01:51;;;;;;;11.23;2.85;;;8.50;99.90;;;;;;5250319;28;20043;-81
2021/12/08 06:04:26;;;;;;;23.10;9.27;;;8.50;99.90;;;;;;5247245;28;20451;-82
2021/12/08 06:07:03;;;;;;;9.98;2.88;;;8.50;99.90;;;;;;5231146;28;20079;-77
2021/12/08 06:09:35;;;;;;;4.75;1.98;;;8.50;99.90;;;;;;5248183;28;20041;-79
2021/12/08 06:12:08;;;;;;;8.73;4.53;;;8.40;99.90;;;;;;5247644;28;20040;-78
2021/12/08 06:14:39;;;;;;;9.10;4.90;;;8.50;99.90;;;;;;5247383;28;20041;-76
2021/12/08 06:17:15;;;;;;;5.03;1.60;;;8.50;99.90;;;;;;5247720;28;20550;-76
2021/12/08 06:19:47;;;;;;;19.23;8.80;;;8.40;99.90;;;;;;5247430;28;20075;-76
2021/12/08 06:22:20;;;;;;;27.85;13.07;;;8.40;99.90;;;;;;5247969;28;20511;-76
2021/12/08 06:24:53;;;;;;;6.45;3.08;;;8.60;99.90;;;;;;5246381;28;20183;-77
2021/12/08 06:27:24;;;;;;;12.77;5.80;;;8.40;99.90;;;;;;5240836;28;20021;-76
2021/12/08 06:30:24;;;;;;;16.75;7.22;;;8.50;99.90;;;;;;5237766;28;20045;-73
2021/12/08 06:32:56;;;;;;;19.83;9.45;;;8.20;99.90;;;;;;5226655;28;20029;-77
2021/12/08 06:35:35;;;;;;;100.13;51.22;;;8.20;99.90;;;;;;5238804;28;20055;-74
2021/12/08 06:38:07;;;;;;;29.23;14.05;;;8.30;99.90;;;;;;5249190;28;20025;-77
2021/12/08 06:40:45;;;;;;;16.10;9.23;;;8.20;99.90;;;;;;5231326;28;20033;-76
2021/12/08 06:43:19;;;;;;;13.52;6.82;;;8.30;99.90;;;;;;5249251;28;20021;-76
2021/12/08 06:45:54;;;;;;;13.90;8.30;;;8.30;99.90;;;;;;5248974;28;20103;-76
2021/12/08 06:48:33;;;;;;;8.13;3.58;;;8.20;99.90;;;;;;5248798;28;20066;-74
2021/12/08 06:51:10;;;;;;;12.75;7.38;;;8.10;99.90;;;;;;5249053;28;20403;-77
2021/12/08 06:53:44;;;;;;;9.85;6.28;;;8.30;99.90;;;;;;5248937;28;20120;-76
2021/12/08 06:56:24;;;;;;;11.48;6.00;;;8.10;99.90;;;;;;5248735;28;20028;-77
2021/12/08 06:58:59;;;;;;;16.83;10.52;;;8.20;99.90;;;;;;5248746;28;20480;-76
2021/12/08 07:01:44;;;;;;;15.05;9.05;;;8.00;99.90;;;;;;5248648;28;20484;-76
2021/12/08 07:04:32;;;;;;;50.45;30.23;;;8.00;99.90;;;;;;5248545;28;20044;-76
2021/12/08 07:07:15;;;;;;;27.02;11.75;;;7.90;99.90;;;;;;5248972;28;20368;-76
2021/12/08 07:10:05;;;;;;;12.57;6.57;;;7.90;99.90;;;;;;5248692;28;20029;-76
2021/12/08 07:12:40;;;;;;;14.93;9.25;;;8.00;99.90;;;;;;5248842;28;20033;-76
2021/12/08 07:15:21;;;;;;;10.63;5.18;;;8.10;99.90;;;;;;5248723;28;20075;-77
2021/12/08 07:17:53;;;;;;;;;;;8.00;99.90;;;;;;5249267;28;20032;-77
2021/12/08 07:20:43;;;;;;;28.17;15.63;;;7.80;99.90;;;;;;5248362;28;19923;-76
2021/12/08 07:23:16;;;;;;;8.30;4.35;;;7.90;99.90;;;;;;5249133;28;20078;-77
2021/12/08 07:25:50;;;;;;;17.05;9.75;;;8.00;99.90;;;;;;5248530;28;20020;-76
2021/12/08 07:28:23;;;;;;;21.50;12.18;;;7.90;99.90;;;;;;5248387;28;20082;-76
2021/12/08 07:30:58;;;;;;;50.22;33.75;;;7.80;99.90;;;;;;5230451;28;20062;-77
2021/12/08 07:33:29;;;;;;;14.13;9.52;;;7.70;99.90;;;;;;5248409;28;20487;-76
2021/12/08 07:36:05;;;;;;;12.15;7.82;;;7.80;99.90;;;;;;5248382;28;20433;-77
2021/12/08 07:38:38;;;;;;;10.25;7.57;;;7.70;99.90;;;;;;5258171;28;20016;-76
2021/12/08 07:41:18;;;;;;;14.20;9.73;;;7.80;99.90;;;;;;5269155;28;20020;-76
2021/12/08 07:43:52;;;;;;;21.60;11.73;;;7.70;99.90;;;;;;5269252;28;20030;-77
2021/12/08 07:46:33;;;;;;;4.50;2.97;;;7.70;99.90;;;;;;5251011;28;20123;-76
2021/12/08 07:49:32;;;;;;;8.73;3.55;;;7.50;99.90;;;;;;5257201;28;20020;-76
2021/12/08 07:52:12;;;;;;;11.77;6.85;;;7.70;99.90;;;;;;5248306;28;20383;-77
2021/12/08 07:54:43;;;;;;;15.90;8.63;;;7.70;99.90;;;;;;5248284;28;20418;-76
2021/12/08 07:57:19;;;;;;;14.05;7.60;;;7.70;99.90;;;;;;5247965;28;20044;-76
2021/12/08 08:00:07;;;;;;;27.65;17.27;;;7.50;99.90;;;;;;5248394;28;20017;-76
2021/12/08 08:02:38;;;;;;;44.63;25.98;;;7.40;99.90;;;;;;5248173;28;20123;-77
2021/12/08 08:05:09;;;;;;;104.38;56.80;;;7.50;99.90;;;;;;5248358;28;20111;-77
2021/12/08 08:07:43;;;;;;;10.85;5.95;;;7.40;99.90;;;;;;5247900;28;20082;-77
2021/12/08 08:10:16;;;;;;;10.23;5.30;;;7.40;99.90;;;;;;5251023;28;20020;-76
2021/12/08 08:12:50;;;;;;;23.23;13.95;;;7.30;99.90;;;;;;5248115;28;20032;-77
2021/12/08 08:15:24;;;;;;;11.85;9.57;;;7.40;99.90;;;;;;5248158;28;20039;-76
2021/12/08 08:17:55;;;;;;;10.45;7.00;;;7.50;99.90;;;;;;5250632;28;20553;-77
2021/12/08 08:20:31;;;;;;;5.28;3.00;;;7.60;99.90;;;;;;5251730;28;20029;-76
2021/12/08 08:23:03;;;;;;;10.70;6.55;;;7.50;99.90;;;;;;5251905;28;20082;-77
2021/12/08 08:25:37;;;;;;;11.35;6.40;;;7.50;99.90;;;;;;5251589;28;20029;-75
2021/12/08 08:28:09;;;;;;;8.20;6.03;;;7.40;99.90;;;;;;5251630;28;20021;-76
2021/12/08 08:31:02;;;;;;;12.02;8.55;;;7.40;99.90;;;;;;5260301;28;20032;-77
2021/12/08 08:33:35;;;;;;;12.48;8.43;;;7.50;99.90;;;;;;5272704;28;20394;-77
2021/12/08 08:36:14;;;;;;;14.95;7.95;;;7.60;99.90;;;;;;5272471;28;20123;-76
2021/12/08 08:39:00;;;;;;;9.13;4.68;;;7.60;99.90;;;;;;5272764;28;20042;-76
2021/12/08 08:41:43;;;;;;;17.02;7.82;;;7.40;99.90;;;;;;5254520;28;20024;-76
2021/12/08 08:44:25;;;;;;;9.57;2.97;;;7.40;99.90;;;;;;5272311;28;20024;-77
2021/12/08 08:47:00;;;;;;;19.23;12.95;;;7.40;99.90;;;;;;5272506;28;20036;-77
2021/12/08 08:49:34;;;;;;;9.60;6.30;;;7.60;99.90;;;;;;5272354;28;20033;-76
2021/12/08 08:52:31;;;;;;;17.08;8.30;;;7.60;99.90;;;;;;5272183;28;20039;-76
2021/12/08 08:55:10;;;;;;;22.55;13.40;;;7.30;99.90;;;;;;5253302;28;20563;-77
2021/12/08 08:57:43;;;;;;;9.70;6.73;;;7.40;99.90;;;;;;5272105;28;20036;-77
2021/12/08 09:00:21;;;;;;;24.65;13.52;;;7.60;99.90;;;;;;5253901;28;20107;-76
2021/12/08 09:02:53;;;;;;;8.55;3.88;;;7.20;99.90;;;;;;5271904;28;20058;-76
2021/12/08 09:05:39;;;;;;;14.73;7.43;;;7.40;99.90;;;;;;5271984;28;20024;-76
2021/12/08 09:08:12;;;;;;;17.95;9.68;;;7.20;99.90;;;;;;5271987;28;20388;-73
2021/12/08 09:10:54;;;;;;;46.35;24.05;;;7.40;99.90;;;;;;5272002;28;20031;-76
2021/12/08 09:13:34;;;;;;;27.55;15.85;;;7.30;99.90;;;;;;5271855;28;20036;-76
2021/12/08 09:16:11;;;;;;;39.03;21.00;;;7.50;99.90;;;;;;5272238;28;20394;-77
2021/12/08 09:18:53;;;;;;;18.83;10.05;;;7.40;99.90;;;;;;5271754;28;20028;-77
2021/12/08 09:21:31;;;;;;;24.75;14.52;;;7.30;99.90;;;;;;5271666;28;20375;-76
2021/12/08 09:24:07;;;;;;;30.80;20.75;;;7.00;99.90;;;;;;5271510;28;20038;-77
2021/12/08 09:26:43;;;;;;;22.70;14.70;;;7.10;99.90;;;;;;5271480;28;20028;-75
2021/12/08 09:29:23;;;;;;;16.88;13.93;;;7.10;99.90;;;;;;5252207;28;20421;-76
2021/12/08 09:32:05;;;;;;;12.77;9.60;;;7.10;99.90;;;;;;5272025;28;20025;-76
2021/12/08 09:34:40;;;;;;;11.85;7.05;;;7.00;99.90;;;;;;5271459;28;20028;-76
2021/12/08 09:37:19;;;;;;;18.38;8.90;;;7.10;99.90;;;;;;5271208;28;20035;-76
2021/12/08 09:40:04;;;;;;;19.17;15.10;;;7.10;99.90;;;;;;5271808;28;20524;-76
2021/12/08 09:42:41;;;;;;;17.05;12.93;;;7.00;99.90;;;;;;5271461;28;20107;-77
2021/12/08 09:45:45;;;;;;;29.35;22.05;;;7.20;99.90;;;;;;5271275;28;20061;-77
2021/12/08 09:48:16;;;;;;;15.57;12.40;;;7.20;99.90;;;;;;5266225;28;20040;-76
2021/12/08 09:50:47;;;;;;;27.45;18.48;;;7.40;99.90;;;;;;5252693;28;20020;-77
2021/12/08 09:53:18;;;;;;;15.55;10.07;;;7.30;99.90;;;;;;5256889;28;20108;-76
2021/12/08 09:55:50;;;;;;;47.63;35.13;;;7.10;99.90;;;;;;5249956;28;20104;-76
2021/12/08 09:58:21;;;;;;;20.00;14.25;;;7.30;99.90;;;;;;5250024;28;20033;-76
2021/12/08 10:00:57;;;;;;;6.70;2.58;;;7.40;99.90;;;;;;5249888;28;20025;-76
2021/12/08 10:03:28;;;;;;;8.20;4.80;;;7.20;99.90;;;;;;5249670;28;20048;-77
2021/12/08 10:05:59;;;;;;;7.50;6.03;;;7.10;99.90;;;;;;5249829;28;20563;-79
2021/12/08 10:08:30;;;;;;;30.67;16.83;;;7.20;99.90;;;;;;5249868;28;20012;-76
2021/12/08 10:11:02;;;;;;;22.73;14.18;;;7.20;99.90;;;;;;5249579;28;20034;-77
2021/12/08 10:13:33;;;;;;;12.90;6.80;;;7.30;99.90;;;;;;5249657;28;20048;-77
2021/12/08 10:16:04;;;;;;;11.95;6.88;;;7.30;99.90;;;;;;5232118;28;20075;-77
2021/12/08 10:18:35;;;;;;;13.40;6.90;;;7.20;99.90;;;;;;5249357;28;20094;-77
2021/12/08 10:21:06;;;;;;;12.27;5.50;;;7.30;99.90;;;;;;5249452;28;20027;-75
2021/12/08 10:23:40;;;;;;;16.33;8.90;;;7.40;99.90;;;;;;5231498;28;20028;-77
2021/12/08 10:26:21;;;;;;;10.40;3.85;;;7.20;99.90;;;;;;5249407;28;20024;-76
2021/12/08 10:28:56;;;;;;;;;;;7.30;99.90;;;;;;5242211;28;20031;-73
2021/12/08 10:31:31;;;;;;;19.85;12.60;;;7.40;99.90;;;;;;5270207;28;19904;-78
2021/12/08 10:37:08;;;;;;;45.42;31.08;;;7.40;99.90;;;;;;5269984;28;20050;-77
2021/12/08 10:39:41;;;;;;;18.27;10.35;;;7.30;99.90;;;;;;5269692;28;20016;-76
2021/12/08 10:42:24;;;;;;;5.15;2.83;;;7.20;99.90;;;;;;5249440;28;20068;-77
2021/12/08 10:45:13;;;;;;;26.20;14.20;;;7.40;99.90;;;;;;5249111;28;20161;-77
2021/12/08 10:47:50;;;;;;;24.10;16.85;;;7.30;99.90;;;;;;5249330;28;20021;-77
2021/12/08 10:56:24;;;;;;;31.38;25.48;;;7.30;99.90;;;;;;5269878;28;19920;-77
2021/12/08 10:58:58;;;;;;;35.70;24.77;;;7.40;99.90;;;;;;5269758;28;20024;-77
2021/12/08 11:01:29;;;;;;;42.72;30.73;;;7.30;99.90;;;;;;5269871;28;20361;-76
2021/12/08 11:04:11;;;;;;;38.60;29.25;;;7.30;99.90;;;;;;5269453;28;20040;-75
2021/12/08 11:06:42;;;;;;;27.85;23.08;;;7.20;99.90;;;;;;5270045;28;20443;-77
2021/12/08 11:09:19;;;;;;;38.70;30.67;;;7.40;99.90;;;;;;5261945;28;20055;-76
2021/12/08 11:11:51;;;;;;;24.35;21.73;;;7.30;99.90;;;;;;5248766;28;20025;-74
2021/12/08 11:14:22;;;;;;;27.80;22.98;;;7.40;99.90;;;;;;5248548;28;20553;-75
2021/12/08 11:16:53;;;;;;;47.88;41.65;;;7.40;99.90;;;;;;5248500;28;20036;-75
2021/12/08 11:19:24;;;;;;;29.13;22.33;;;7.40;99.90;;;;;;5248448;28;20043;-74
2021/12/08 11:21:57;;;;;;;23.23;18.45;;;7.50;99.90;;;;;;5248566;28;20016;-77
2021/12/08 11:24:45;;;;;;;15.45;10.82;;;7.60;99.90;;;;;;5248472;28;20024;-77
2021/12/08 11:27:29;;;;;;;42.40;32.75;;;7.40;99.90;;;;;;5248432;28;20021;-74
2021/12/08 11:30:16;;;;;;;18.70;13.88;;;7.50;99.90;;;;;;5248572;28;20025;-76
2021/12/08 11:32:47;;;;;;;28.73;23.75;;;7.60;99.90;;;;;;5248499;28;20353;-77
2021/12/08 11:35:20;;;;;;;16.30;11.35;;;7.70;99.90;;;;;;5248363;28;20023;-77
2021/12/08 11:37:59;;;;;;;13.15;9.82;;;7.60;99.90;;;;;;5248440;28;20043;-74
2021/12/08 11:40:34;;;;;;;10.95;8.05;;;7.20;99.90;;;;;;5248507;28;20017;-77
2021/12/08 11:43:16;;;;;;;8.20;5.32;;;7.40;99.90;;;;;;5248497;28;20035;-76
2021/12/08 11:45:46;;;;;;;13.70;7.25;;;7.50;99.90;;;;;;5248811;28;20111;-76
2021/12/08 11:48:23;;;;;;;13.07;10.20;;;7.50;99.90;;;;;;5230134;28;20519;-76
2021/12/08 11:51:10;;;;;;;30.95;25.17;;;7.40;99.90;;;;;;5248233;28;20024;-78
2021/12/08 11:53:41;;;;;;;7.72;5.15;;;7.40;99.90;;;;;;5252568;28;20391;-76
2021/12/08 11:56:33;;;;;;;22.17;14.27;;;7.40;99.90;;;;;;5262505;28;20039;-76
2021/12/08 11:59:07;;;;;;;27.58;17.17;;;7.40;99.90;;;;;;5265821;28;20551;-76
2021/12/08 12:01:39;;;;;;;11.40;7.43;;;7.40;99.90;;;;;;5252750;28;20028;-75
2021/12/08 12:04:10;;;;;;;41.80;25.70;;;7.40;99.90;;;;;;5252199;28;20112;-76
2021/12/08 12:06:41;;;;;;;8.15;4.50;;;7.30;99.90;;;;;;5252334;28;20124;-76
2021/12/08 12:09:12;;;;;;;79.93;51.72;;;7.40;99.90;;;;;;5270637;28;20178;-76
2021/12/08 12:11:43;;;;;;;22.02;12.98;;;7.40;99.90;;;;;;5273063;28;20024;-76
2021/12/08 12:14:14;;;;;;;29.83;19.33;;;7.20;99.90;;;;;;5272838;28;20140;-76
2021/12/08 12:16:47;;;;;;;45.15;30.23;;;7.50;99.90;;;;;;5272878;28;20043;-77
2021/12/08 12:19:21;;;;;;;18.50;12.85;;;7.40;99.90;;;;;;5273086;28;20058;-77
2021/12/08 12:22:19;;;;;;;44.60;27.67;;;7.50;99.90;;;;;;5272958;28;20178;-76
2021/12/08 12:25:16;;;;;;;16.27;8.05;;;7.70;99.90;;;;;;5272767;28;20129;-76
2021/12/08 12:28:28;;;;;;;42.00;19.02;;;7.60;99.90;;;;;;5226396;28;20032;-77
2021/12/08 12:31:19;;;;;;;52.17;26.90;;;7.50;99.90;;;;;;5254532;28;20421;-77
2021/12/08 12:33:52;;;;;;;41.38;24.20;;;7.60;99.90;;;;;;5272665;28;20096;-77
2021/12/08 12:36:32;;;;;;;39.65;20.88;;;7.70;99.90;;;;;;5272341;28;20035;-76
2021/12/08 12:39:16;;;;;;;54.88;27.20;;;7.60;99.90;;;;;;5272594;28;20024;-77
2021/12/08 12:42:15;;;;;;;51.33;25.65;;;7.60;99.90;;;;;;5272376;28;20063;-76
2021/12/08 12:45:07;;;;;;;29.60;15.70;;;7.60;99.90;;;;;;5272542;28;20028;-77
2021/12/08 12:47:38;;;;;;;22.38;12.98;;;7.60;99.90;;;;;;5272543;28;20039;-76
2021/12/08 12:50:18;;;;;;;15.55;8.15;;;7.60;99.90;;;;;;5272250;28;20074;-76
2021/12/08 12:52:59;;;;;;;16.27;9.55;;;7.70;99.90;;;;;;5272500;28;20024;-76
2021/12/08 12:55:38;;;;;;;33.83;17.85;;;7.70;99.90;;;;;;5271966;28;20098;-77
2021/12/08 12:58:10;;;;;;;14.07;6.18;;;7.60;99.90;;;;;;5272443;28;20028;-76
2021/12/08 13:00:44;;;;;;;13.25;9.68;;;7.50;99.90;;;;;;5272489;28;20065;-77
2021/12/08 13:03:43;;;;;;;12.60;5.70;;;7.50;99.90;;;;;;5271636;28;20044;-77
2021/12/08 13:06:17;;;;;;;23.23;14.48;;;7.50;99.90;;;;;;5251046;28;20036;-76
2021/12/08 13:08:50;;;;;;;136.05;78.80;;;7.40;99.90;;;;;;5251027;28;20025;-77
2021/12/08 13:11:35;;;;;;;111.47;63.15;;;7.40;99.90;;;;;;5250946;28;20023;-76
2021/12/08 13:14:19;;;;;;;42.28;25.67;;;7.40;99.90;;;;;;5250788;28;20024;-77
2021/12/08 13:17:16;;;;;;;20.23;12.88;;;7.50;99.90;;;;;;5250858;28;20037;-75
2021/12/08 13:19:53;;;;;;;20.15;18.05;;;7.40;99.90;;;;;;5251768;28;20033;-76
2021/12/08 13:22:52;;;;;;;19.42;17.23;;;7.50;99.90;;;;;;5271852;28;20021;-75
2021/12/08 13:25:28;;;;;;;14.27;11.90;;;7.40;99.90;;;;;;5271673;28;20020;-76
2021/12/08 13:28:17;;;;;;;13.10;9.82;;;7.50;99.90;;;;;;5271644;28;20024;-76
2021/12/08 13:30:55;;;;;;;11.82;8.80;;;7.60;99.90;;;;;;5272069;28;20031;-76
2021/12/08 13:33:33;;;;;;;13.65;6.32;;;7.40;99.90;;;;;;5272027;28;20386;-77
2021/12/08 13:36:21;;;;;;;10.90;6.18;;;7.30;99.90;;;;;;5271742;28;20422;-76
2021/12/08 13:38:57;;;;;;;14.73;8.85;;;7.40;99.90;;;;;;5271435;28;20110;-76
2021/12/08 13:41:33;;;;;;;8.77;6.85;;;7.50;99.90;;;;;;5271317;28;20085;-76
2021/12/08 13:44:26;;;;;;;44.17;36.97;;;7.40;99.90;;;;;;5271192;28;20028;-76
2021/12/08 13:46:57;;;;;;;36.72;25.20;;;7.50;99.90;;;;;;5271701;28;20470;-75
2021/12/08 13:49:34;;;;;;;56.65;47.10;;;7.40;99.90;;;;;;5271138;28;20380;-76
2021/12/08 13:52:07;;;;;;;44.20;32.13;;;7.40;99.90;;;;;;5271310;28;20046;-75
2021/12/08 13:54:46;;;;;;;36.58;31.15;;;7.40;99.90;;;;;;5262553;28;20034;-76
2021/12/08 13:57:39;;;;;;;8.73;5.35;;;7.50;99.90;;;;;;5250132;28;20115;-76
2021/12/08 14:00:12;;;;;;;21.10;11.55;;;7.60;99.90;;;;;;5250067;28;20028;-76
2021/12/08 14:02:49;;;;;;;61.08;38.50;;;7.60;99.90;;;;;;5249868;28;20384;-75
2021/12/08 14:05:49;;;;;;;36.47;21.45;;;7.50;99.90;;;;;;5250157;28;20372;-75
2021/12/08 14:08:31;;;;;;;49.17;29.30;;;7.60;99.90;;;;;;5249817;28;20025;-77
2021/12/08 14:11:15;;;;;;;75.60;46.45;;;7.60;99.90;;;;;;5250061;28;20526;-76
2021/12/08 14:13:51;;;;;;;34.95;21.85;;;7.70;99.90;;;;;;5253806;28;20020;-76
2021/12/08 14:16:25;;;;;;;34.60;23.48;;;7.60;99.90;;;;;;5253878;28;20045;-77
2021/12/08 14:18:58;;;;;;;64.47;42.22;;;7.50;99.90;;;;;;5249506;28;20021;-76
2021/12/08 14:21:34;;;;;;;38.30;25.58;;;7.60;99.90;;;;;;5249558;28;20032;-76
2021/12/08 14:24:10;;;;;;;11.10;6.63;;;7.60;99.90;;;;;;5249583;28;20023;-76